Time;durP1;ratioP1;P1;durP2;ratioP2;P2;SDS_P1;SDS_P2;PMS_P1;PMS_P2;Temp;Humidity;BMP_temperature;BMP_pressure;BME280_temperature;BME280_humidity;BME280_pressure;Samples;Min_cycle;Max_cycle;Signal;HPM_P1;HPM_P2
2022/09/14 00:01:34;;;;;;;;;;;;;;;;;;4950656;29;1477;-74
2022/09/14 00:04:01;;;;;;;;;;;;;;;;;;4951063;28;1969;-74
2022/09/14 00:06:29;;;;;;;;;;;;;;;;;;4951055;29;885;-73
2022/09/14 00:08:56;;;;;;;;;;;;;;;;;;4951070;28;1310;-74
2022/09/14 00:11:23;;;;;;;;;;;;;;;;;;4933870;29;1289;-73
2022/09/14 00:13:49;;;;;;;;;;;;;;;;;;4951124;29;869;-75
2022/09/14 00:16:16;;;;;;;;;;;;;;;;;;4951278;29;1301;-74
2022/09/14 00:18:43;;;;;;;;;;;;;;;;;;4951172;28;1283;-73
2022/09/14 00:21:10;;;;;;;;;;;;;;;;;;4951330;29;780;-74
2022/09/14 00:23:38;;;;;;;;;;;;;;;;;;4950607;29;1915;-75
2022/09/14 00:26:04;;;;;;;;;;;;;;;;;;4951109;29;897;-74
2022/09/14 00:28:31;;;;;;;;;;;;;;;;;;4951000;28;1316;-74
2022/09/14 00:30:57;;;;;;;;;;;;;;;;;;4950977;29;1068;-74
2022/09/14 00:33:23;;;;;;;;;;;;;;;;;;4950671;28;968;-74
2022/09/14 00:35:49;;;;;;;;;;;;;;;;;;4951256;29;740;-74
2022/09/14 00:38:15;;;;;;;;;;;;;;;;;;4950986;28;1301;-73
2022/09/14 00:40:43;;;;;;;;;;;;;;;;;;4950514;29;1115;-74
2022/09/14 00:43:12;;;;;;;;;;;;;;;;;;4933577;29;1966;-74
2022/09/14 00:45:38;;;;;;;;;;;;;;;;;;4950666;29;890;-74
2022/09/14 00:48:05;;;;;;;;;;;;;;;;;;4950677;28;1314;-74
2022/09/14 00:50:31;;;;;;;;;;;;;;;;;;4933676;29;1137;-74
2022/09/14 00:52:58;;;;;;;;;;;;;;;;;;4950231;29;977;-73
2022/09/14 00:55:24;;;;;;;;;;;;;;;;;;4951171;29;1060;-73
2022/09/14 00:57:52;;;;;;;;;;;;;;;;;;4951014;28;1432;-73
2022/09/14 01:00:19;;;;;;;;;;;;;;;;;;4949549;29;1240;-73
2022/09/14 01:02:45;;;;;;;;;;;;;;;;;;4949887;29;1107;-74
2022/09/14 01:05:11;;;;;;;;;;;;;;;;;;4950552;29;1899;-72
2022/09/14 01:07:42;;;;;;;;;;;;;;;;;;4950739;29;799;-73
2022/09/14 01:10:13;;;;;;;;;;;;;;;;;;4950495;29;1056;-74
2022/09/14 01:12:43;;;;;;;;;;;;;;;;;;4950268;29;1045;-73
2022/09/14 01:15:11;;;;;;;;;;;;;;;;;;4933355;29;1283;-73
2022/09/14 01:17:39;;;;;;;;;;;;;;;;;;4932879;29;1150;-73
2022/09/14 01:20:23;;;;;;;;;;;;;;;;;;4950204;28;1344;-71
2022/09/14 01:22:51;;;;;;;;;;;;;;;;;;4932687;29;1311;-73
2022/09/14 01:25:21;;;;;;;;;;;;;;;;;;4950489;29;1919;-73
2022/09/14 01:27:50;;;;;;;;;;;;;;;;;;4950026;28;1400;-73
2022/09/14 01:30:17;;;;;;;;;;;;;;;;;;4950264;29;1140;-73
2022/09/14 01:32:44;;;;;;;;;;;;;;;;;;4949895;29;1134;-74
2022/09/14 01:35:12;;;;;;;;;;;;;;;;;;4949858;29;1052;-73
2022/09/14 01:37:40;;;;;;;;;;;;;;;;;;4950049;29;933;-74
2022/09/14 01:40:07;;;;;;;;;;;;;;;;;;4949986;28;1335;-73
2022/09/14 01:42:34;;;;;;;;;;;;;;;;;;4932892;29;1297;-73
2022/09/14 01:45:01;;;;;;;;;;;;;;;;;;4949973;29;1968;-73
2022/09/14 01:47:30;;;;;;;;;;;;;;;;;;4949841;28;1542;-73
2022/09/14 01:49:57;;;;;;;;;;;;;;;;;;4949808;28;1382;-73
2022/09/14 01:52:24;;;;;;;;;;;;;;;;;;4949657;29;1099;-73
2022/09/14 01:54:51;;;;;;;;;;;;;;;;;;4949579;29;1076;-73
2022/09/14 01:57:18;;;;;;;;;;;;;;;;;;4949925;29;950;-73
2022/09/14 01:59:45;;;;;;;;;;;;;;;;;;4949631;28;1315;-73
2022/09/14 02:02:14;;;;;;;;;;;;;;;;;;4932377;29;1283;-73
2022/09/14 02:04:44;;;;;;;;;;;;;;;;;;4949603;29;1974;-73
2022/09/14 02:07:10;;;;;;;;;;;;;;;;;;4947920;28;1465;-73
2022/09/14 02:09:36;;;;;;;;;;;;;;;;;;4949743;28;1310;-73
2022/09/14 02:12:02;;;;;;;;;;;;;;;;;;4950695;28;1052;-73
2022/09/14 02:14:29;;;;;;;;;;;;;;;;;;4935018;29;1254;-73
2022/09/14 02:16:55;;;;;;;;;;;;;;;;;;4951841;29;1103;-73
2022/09/14 02:19:24;;;;;;;;;;;;;;;;;;4952025;28;1388;-73
2022/09/14 02:21:50;;;;;;;;;;;;;;;;;;4951906;28;1056;-73
2022/09/14 02:24:16;;;;;;;;;;;;;;;;;;4952868;29;1920;-73
2022/09/14 02:26:42;;;;;;;;;;;;;;;;;;4952749;29;747;-73
2022/09/14 02:29:09;;;;;;;;;;;;;;;;;;5000330;22;4120;-74
2022/09/14 02:31:39;;;;;;;;;;;;;;;;;;4990236;28;1087;-74
2022/09/14 02:34:07;;;;;;;;;;;;;;;;;;4991595;28;921;-74
2022/09/14 02:36:36;;;;;;;;;;;;;;;;;;4990077;28;1249;-74
2022/09/14 02:39:02;;;;;;;;;;;;;;;;;;4991429;28;1318;-74
2022/09/14 02:41:33;;;;;;;;;;;;;;;;;;4990990;28;1500;-74
2022/09/14 02:44:01;;;;;;;;;;;;;;;;;;4991416;28;1914;-74
2022/09/14 02:46:29;;;;;;;;;;;;;;;;;;4974105;28;1137;-75
2022/09/14 02:48:57;;;;;;;;;;;;;;;;;;4990924;28;1318;-73
2022/09/14 02:51:25;;;;;;;;;;;;;;;;;;4973534;28;1307;-75
2022/09/14 02:53:53;;;;;;;;;;;;;;;;;;4991245;28;854;-76
2022/09/14 02:56:20;;;;;;;;;;;;;;;;;;4991036;28;956;-76
2022/09/14 02:58:46;;;;;;;;;;;;;;;;;;4973744;28;1400;-75
2022/09/14 03:01:13;;;;;;;;;;;;;;;;;;4990980;28;883;-74
2022/09/14 03:03:39;;;;;;;;;;;;;;;;;;4991001;28;1111;-74
2022/09/14 03:06:06;;;;;;;;;;;;;;;;;;4990508;28;1915;-76
2022/09/14 03:08:32;;;;;;;;;;;;;;;;;;4991044;28;1385;-75
2022/09/14 03:10:59;;;;;;;;;;;;;;;;;;4990747;28;945;-74
2022/09/14 03:13:26;;;;;;;;;;;;;;;;;;4973112;28;1100;-74
2022/09/14 03:15:52;;;;;;;;;;;;;;;;;;4990944;28;787;-75
2022/09/14 03:18:18;;;;;;;;;;;;;;;;;;4990682;28;1376;-75
2022/09/14 03:20:45;;;;;;;;;;;;;;;;;;4990812;28;1123;-76
2022/09/14 03:23:11;;;;;;;;;;;;;;;;;;4972141;28;1260;-74
2022/09/14 03:25:38;;;;;;;;;;;;;;;;;;4973171;28;1976;-76
2022/09/14 03:28:06;;;;;;;;;;;;;;;;;;4990227;28;1315;-73
2022/09/14 03:30:32;;;;;;;;;;;;;;;;;;4990529;28;1055;-76
2022/09/14 03:32:58;;;;;;;;;;;;;;;;;;4983043;28;1423;-76
2022/09/14 03:35:25;;;;;;;;;;;;;;;;;;4982007;28;1524;-76
2022/09/14 03:37:51;;;;;;;;;;;;;;;;;;4980326;28;1405;-76
2022/09/14 03:40:18;;;;;;;;;;;;;;;;;;4985668;28;1381;-76
2022/09/14 03:42:44;;;;;;;;;;;;;;;;;;4989912;28;1036;-74
2022/09/14 03:45:12;;;;;;;;;;;;;;;;;;4990099;28;1907;-76
2022/09/14 03:47:38;;;;;;;;;;;;;;;;;;4972862;28;1099;-75
2022/09/14 03:50:04;;;;;;;;;;;;;;;;;;4990016;28;1360;-76
2022/09/14 03:52:30;;;;;;;;;;;;;;;;;;4984877;28;1408;-76
2022/09/14 03:54:57;;;;;;;;;;;;;;;;;;4986410;28;1519;-75
2022/09/14 03:57:23;;;;;;;;;;;;;;;;;;4982145;28;1202;-75
2022/09/14 03:59:49;;;;;;;;;;;;;;;;;;4972819;28;1332;-75
2022/09/14 04:02:17;;;;;;;;;;;;;;;;;;4972150;28;1121;-75
2022/09/14 04:04:43;;;;;;;;;;;;;;;;;;4989052;28;1918;-75
2022/09/14 04:07:09;;;;;;;;;;;;;;;;;;4989794;28;1206;-76
2022/09/14 04:09:37;;;;;;;;;;;;;;;;;;4979941;28;1621;-75
2022/09/14 04:12:03;;;;;;;;;;;;;;;;;;4996812;28;1273;-75
2022/09/14 04:14:29;;;;;;;;;;;;;;;;;;4977864;28;1388;-75
2022/09/14 04:16:56;;;;;;;;;;;;;;;;;;4987411;28;1631;-75
2022/09/14 04:19:23;;;;;;;;;;;;;;;;;;4988895;28;1401;-76
2022/09/14 04:21:49;;;;;;;;;;;;;;;;;;4988139;28;1357;-75
2022/09/14 04:24:15;;;;;;;;;;;;;;;;;;4981579;28;2215;-75
2022/09/14 04:26:42;;;;;;;;;;;;;;;;;;4981867;28;1440;-75
2022/09/14 04:29:09;;;;;;;;;;;;;;;;;;4988940;28;1310;-75
2022/09/14 04:31:35;;;;;;;;;;;;;;;;;;4989077;28;1134;-75
2022/09/14 04:34:02;;;;;;;;;;;;;;;;;;4971088;28;1147;-74
2022/09/14 04:36:29;;;;;;;;;;;;;;;;;;4989522;28;897;-75
2022/09/14 04:38:56;;;;;;;;;;;;;;;;;;4989362;28;1324;-75
2022/09/14 04:41:23;;;;;;;;;;;;;;;;;;4989252;28;1099;-73
2022/09/14 04:43:50;;;;;;;;;;;;;;;;;;4971855;28;1247;-74
2022/09/14 04:46:16;;;;;;;;;;;;;;;;;;4976339;28;2319;-73
2022/09/14 04:48:43;;;;;;;;;;;;;;;;;;4987994;28;1427;-75
2022/09/14 04:51:10;;;;;;;;;;;;;;;;;;4992147;28;1243;-75
2022/09/14 04:53:38;;;;;;;;;;;;;;;;;;4991127;28;1217;-75
2022/09/14 04:56:05;;;;;;;;;;;;;;;;;;4990038;28;1297;-75
2022/09/14 04:58:32;;;;;;;;;;;;;;;;;;4987862;28;1365;-76
2022/09/14 05:01:00;;;;;;;;;;;;;;;;;;4978006;28;1326;-75
2022/09/14 05:03:26;;;;;;;;;;;;;;;;;;4988784;28;1099;-75
2022/09/14 05:05:53;;;;;;;;;;;;;;;;;;4971435;28;1918;-76
2022/09/14 05:08:19;;;;;;;;;;;;;;;;;;4987833;28;1415;-76
2022/09/14 05:10:46;;;;;;;;;;;;;;;;;;4987545;28;1160;-76
2022/09/14 05:13:15;;;;;;;;;;;;;;;;;;4984986;28;1213;-76
2022/09/14 05:15:41;;;;;;;;;;;;;;;;;;4987615;28;1231;-76
2022/09/14 05:18:07;;;;;;;;;;;;;;;;;;4987524;28;1362;-75
2022/09/14 05:20:34;;;;;;;;;;;;;;;;;;4987551;28;1228;-76
2022/09/14 05:23:00;;;;;;;;;;;;;;;;;;4987386;28;1298;-76
2022/09/14 05:25:26;;;;;;;;;;;;;;;;;;4987436;28;1947;-75
2022/09/14 05:27:54;;;;;;;;;;;;;;;;;;4987116;28;1493;-75
2022/09/14 05:30:20;;;;;;;;;;;;;;;;;;4987618;28;1267;-77
2022/09/14 05:32:46;;;;;;;;;;;;;;;;;;4987045;28;1279;-75
2022/09/14 05:35:12;;;;;;;;;;;;;;;;;;4975324;28;1271;-76
2022/09/14 05:37:38;;;;;;;;;;;;;;;;;;4987562;28;1282;-76
2022/09/14 05:40:05;;;;;;;;;;;;;;;;;;4987748;28;1284;-76
2022/09/14 05:42:32;;;;;;;;;;;;;;;;;;4987292;28;1286;-76
2022/09/14 05:44:59;;;;;;;;;;;;;;;;;;4987533;28;1918;-75
2022/09/14 05:47:25;;;;;;;;;;;;;;;;;;4990937;28;1481;-76
2022/09/14 05:49:52;;;;;;;;;;;;;;;;;;4990699;28;1391;-76
2022/09/14 05:52:18;;;;;;;;;;;;;;;;;;4981112;28;1299;-76
2022/09/14 05:54:44;;;;;;;;;;;;;;;;;;4990751;28;1197;-76
2022/09/14 05:57:10;;;;;;;;;;;;;;;;;;4990624;28;1287;-77
2022/09/14 05:59:36;;;;;;;;;;;;;;;;;;4990542;28;1401;-75
2022/09/14 06:02:04;;;;;;;;;;;;;;;;;;4990233;28;1326;-76
2022/09/14 06:04:30;;;;;;;;;;;;;;;;;;4981370;28;1298;-76
2022/09/14 06:06:56;;;;;;;;;;;;;;;;;;4990381;28;1891;-74
2022/09/14 06:09:23;;;;;;;;;;;;;;;;;;4990758;28;1479;-76
2022/09/14 06:11:49;;;;;;;;;;;;;;;;;;4990669;28;1104;-74
2022/09/14 06:14:18;;;;;;;;;;;;;;;;;;4990960;28;1228;-76
2022/09/14 06:16:44;;;;;;;;;;;;;;;;;;4992223;28;1468;-76
2022/09/14 06:19:14;;;;;;;;;;;;;;;;;;5000208;28;1375;-76
2022/09/14 06:21:40;;;;;;;;;;;;;;;;;;4990148;28;1178;-76
2022/09/14 06:24:06;;;;;;;;;;;;;;;;;;4990362;28;1182;-75
2022/09/14 06:26:32;;;;;;;;;;;;;;;;;;4970968;28;1986;-75
2022/09/14 06:28:58;;;;;;;;;;;;;;;;;;4977566;28;1382;-72
2022/09/14 06:31:25;;;;;;;;;;;;;;;;;;4990966;28;1274;-74
2022/09/14 06:33:51;;;;;;;;;;;;;;;;;;5032689;28;1625;-75
2022/09/14 06:36:21;;;;;;;;;;;;;;;;;;4990229;28;1059;-75
2022/09/14 06:38:47;;;;;;;;;;;;;;;;;;4990416;28;1333;-76
2022/09/14 06:41:16;;;;;;;;;;;;;;;;;;4990298;28;810;-75
2022/09/14 06:43:43;;;;;;;;;;;;;;;;;;4972803;28;1305;-75
2022/09/14 06:46:10;;;;;;;;;;;;;;;;;;4972941;28;1972;-75
2022/09/14 06:48:37;;;;;;;;;;;;;;;;;;4990647;28;1415;-75
2022/09/14 06:51:10;;;;;;;;;;;;;;;;;;4990297;28;743;-74
2022/09/14 06:53:37;;;;;;;;;;;;;;;;;;4986649;28;1736;-75
2022/09/14 06:56:04;;;;;;;;;;;;;;;;;;4990183;28;1114;-75
2022/09/14 06:58:30;;;;;;;;;;;;;;;;;;4972249;28;1322;-75
2022/09/14 07:01:00;;;;;;;;;;;;;;;;;;4989645;28;1417;-75
2022/09/14 07:03:27;;;;;;;;;;;;;;;;;;4989771;28;1060;-75
2022/09/14 07:05:53;;;;;;;;;;;;;;;;;;4990017;28;2289;-76
2022/09/14 07:08:19;;;;;;;;;;;;;;;;;;4990132;28;1414;-75
2022/09/14 07:10:56;;;;;;;;;;;;;;;;;;4989846;28;992;-73
2022/09/14 07:13:22;;;;;;;;;;;;;;;;;;4989438;28;1232;-76
2022/09/14 07:15:49;;;;;;;;;;;;;;;;;;4990064;28;1106;-75
2022/09/14 07:18:15;;;;;;;;;;;;;;;;;;4972715;28;1434;-75
2022/09/14 07:20:41;;;;;;;;;;;;;;;;;;4989630;28;969;-75
2022/09/14 07:23:07;;;;;;;;;;;;;;;;;;4989236;28;755;-75
2022/09/14 07:25:34;;;;;;;;;;;;;;;;;;4989604;28;1914;-75
2022/09/14 07:28:01;;;;;;;;;;;;;;;;;;4989467;28;1829;-76
2022/09/14 07:30:28;;;;;;;;;;;;;;;;;;4989766;28;1064;-76
2022/09/14 07:32:54;;;;;;;;;;;;;;;;;;4988987;28;1182;-76
2022/09/14 07:35:20;;;;;;;;;;;;;;;;;;4990065;28;1126;-75
2022/09/14 07:37:46;;;;;;;;;;;;;;;;;;4989366;28;1313;-74
2022/09/14 07:40:12;;;;;;;;;;;;;;;;;;4989864;28;1172;-75
2022/09/14 07:42:39;;;;;;;;;;;;;;;;;;4988835;28;853;-77
2022/09/14 07:45:07;;;;;;;;;;;;;;;;;;4989334;28;1079;-75
2022/09/14 07:47:33;;;;;;;;;;;;;;;;;;4971927;28;1918;-74
2022/09/14 07:49:59;;;;;;;;;;;;;;;;;;4989403;28;1328;-75
2022/09/14 07:52:25;;;;;;;;;;;;;;;;;;4988859;28;1028;-75
2022/09/14 07:54:52;;;;;;;;;;;;;;;;;;4989245;28;1087;-75
2022/09/14 07:57:18;;;;;;;;;;;;;;;;;;4971997;28;1272;-74
2022/09/14 07:59:44;;;;;;;;;;;;;;;;;;4972669;28;1289;-75
2022/09/14 08:02:11;;;;;;;;;;;;;;;;;;4991330;28;1078;-75
2022/09/14 08:04:38;;;;;;;;;;;;;;;;;;4992012;28;673;-74
2022/09/14 08:07:04;;;;;;;;;;;;;;;;;;4989144;28;1910;-75
2022/09/14 08:09:31;;;;;;;;;;;;;;;;;;4990424;28;1531;-75
2022/09/14 08:11:57;;;;;;;;;;;;;;;;;;4978068;28;1124;-74
2022/09/14 08:14:23;;;;;;;;;;;;;;;;;;4987850;28;1251;-75
2022/09/14 08:16:49;;;;;;;;;;;;;;;;;;4988221;28;1036;-75
2022/09/14 08:19:19;;;;;;;;;;;;;;;;;;4988977;28;1418;-75
2022/09/14 08:21:46;;;;;;;;;;;;;;;;;;4988462;28;1055;-75
2022/09/14 08:24:12;;;;;;;;;;;;;;;;;;4988541;28;1032;-75
2022/09/14 08:26:39;;;;;;;;;;;;;;;;;;4988397;28;1918;-74
2022/09/14 08:29:06;;;;;;;;;;;;;;;;;;4988656;28;1335;-75
2022/09/14 08:31:34;;;;;;;;;;;;;;;;;;4988546;28;1050;-76
2022/09/14 08:34:01;;;;;;;;;;;;;;;;;;4989684;28;1373;-75
2022/09/14 08:36:29;;;;;;;;;;;;;;;;;;4988713;28;636;-76
2022/09/14 08:38:56;;;;;;;;;;;;;;;;;;4988665;28;1399;-75
2022/09/14 08:41:27;;;;;;;;;;;;;;;;;;4988125;28;1040;-75
2022/09/14 08:43:53;;;;;;;;;;;;;;;;;;4988245;28;1056;-75
2022/09/14 08:46:22;;;;;;;;;;;;;;;;;;4988429;28;1895;-75
2022/09/14 08:48:48;;;;;;;;;;;;;;;;;;4988069;28;1423;-75
2022/09/14 08:51:14;;;;;;;;;;;;;;;;;;4988637;28;680;-75
2022/09/14 08:53:42;;;;;;;;;;;;;;;;;;4987778;28;1088;-76
2022/09/14 08:56:09;;;;;;;;;;;;;;;;;;4988329;28;1052;-75
2022/09/14 08:58:38;;;;;;;;;;;;;;;;;;4988293;28;1419;-74
2022/09/14 09:01:07;;;;;;;;;;;;;;;;;;4988066;28;1028;-75
2022/09/14 09:03:52;;;;;;;;;;;;;;;;;;4987655;28;1001;-74
2022/09/14 09:06:19;;;;;;;;;;;;;;;;;;4987929;28;1968;-75
2022/09/14 09:08:49;;;;;;;;;;;;;;;;;;4987756;28;1401;-75
2022/09/14 09:11:16;;;;;;;;;;;;;;;;;;4987850;28;1099;-74
2022/09/14 09:13:42;;;;;;;;;;;;;;;;;;4987620;28;1040;-75
2022/09/14 09:16:10;;;;;;;;;;;;;;;;;;4988074;28;739;-75
2022/09/14 09:18:38;;;;;;;;;;;;;;;;;;4988029;28;1323;-76
2022/09/14 09:21:05;;;;;;;;;;;;;;;;;;4986935;28;1087;-76
2022/09/14 09:23:32;;;;;;;;;;;;;;;;;;4987180;28;1230;-75
2022/09/14 09:26:00;;;;;;;;;;;;;;;;;;4984808;28;1911;-76
2022/09/14 09:28:27;;;;;;;;;;;;;;;;;;4968324;28;1446;-77
2022/09/14 09:30:54;;;;;;;;;;;;;;;;;;4969841;28;1023;-75
2022/09/14 09:33:28;;;;;;;;;;;;;;;;;;4966939;28;1350;-77
2022/09/14 09:36:12;;;;;;;;;;;;;;;;;;4951112;28;1398;-76
2022/09/14 09:38:39;;;;;;;;;;;;;;;;;;4968051;28;1288;-76
2022/09/14 09:41:07;;;;;;;;;;;;;;;;;;4968157;28;1001;-76
2022/09/14 09:43:33;;;;;;;;;;;;;;;;;;4967486;28;1012;-75
2022/09/14 09:46:00;;;;;;;;;;;;;;;;;;4969308;28;1911;-76
2022/09/14 09:48:27;;;;;;;;;;;;;;;;;;4987380;28;1323;-76
2022/09/14 09:51:01;;;;;;;;;;;;;;;;;;4987326;28;1111;-76
2022/09/14 09:53:27;;;;;;;;;;;;;;;;;;4986980;28;786;-76
2022/09/14 09:55:53;;;;;;;;;;;;;;;;;;4969544;28;1194;-76
2022/09/14 09:58:22;;;;;;;;;;;;;;;;;;4986797;28;1322;-76
2022/09/14 10:00:54;;;;;;;;;;;;;;;;;;4995943;28;1468;-75
2022/09/14 10:03:26;;;;;;;;;;;;;;;;;;4988803;28;1414;-76
2022/09/14 10:05:55;;;;;;;;;;;;;;;;;;5006577;28;873;-75
2022/09/14 10:08:21;;;;;;;;;;;;;;;;;;4985536;28;1919;-76
2022/09/14 10:10:47;;;;;;;;;;;;;;;;;;4987056;28;873;-74
2022/09/14 10:13:16;;;;;;;;;;;;;;;;;;4986657;28;1071;-76
2022/09/14 10:15:44;;;;;;;;;;;;;;;;;;4987124;28;621;-76
2022/09/14 10:18:15;;;;;;;;;;;;;;;;;;4987021;28;1346;-76
2022/09/14 10:20:42;;;;;;;;;;;;;;;;;;4987038;28;775;-76
2022/09/14 10:23:19;;;;;;;;;;;;;;;;;;4985490;28;1112;-76
2022/09/14 10:25:46;;;;;;;;;;;;;;;;;;4984921;28;2103;-76
2022/09/14 10:28:18;;;;;;;;;;;;;;;;;;4986576;28;1932;-76
2022/09/14 10:30:48;;;;;;;;;;;;;;;;;;4986864;28;705;-76
2022/09/14 10:33:14;;;;;;;;;;;;;;;;;;4988179;28;1194;-76
2022/09/14 10:35:42;;;;;;;;;;;;;;;;;;4989822;28;1084;-75
2022/09/14 10:38:15;;;;;;;;;;;;;;;;;;4989979;28;1531;-76
2022/09/14 10:40:43;;;;;;;;;;;;;;;;;;4989908;28;1511;-76
2022/09/14 10:43:12;;;;;;;;;;;;;;;;;;4989614;28;1068;-76
2022/09/14 10:45:39;;;;;;;;;;;;;;;;;;4989290;28;906;-76
2022/09/14 10:48:14;;;;;;;;;;;;;;;;;;4975640;28;1976;-76
2022/09/14 10:50:44;;;;;;;;;;;;;;;;;;4987064;28;1330;-76
2022/09/14 10:53:14;;;;;;;;;;;;;;;;;;4971869;28;1132;-76
2022/09/14 10:55:42;;;;;;;;;;;;;;;;;;4972347;28;1205;-76
2022/09/14 10:58:19;;;;;;;;;;;;;;;;;;4989641;28;1419;-76
2022/09/14 11:00:47;;;;;;;;;;;;;;;;;;4989695;28;1055;-76
2022/09/14 11:03:18;;;;;;;;;;;;;;;;;;4988925;28;1048;-76
2022/09/14 11:05:45;;;;;;;;;;;;;;;;;;4989619;28;979;-76
2022/09/14 11:08:12;;;;;;;;;;;;;;;;;;4988730;28;1919;-75
2022/09/14 11:10:41;;;;;;;;;;;;;;;;;;4992110;28;1040;-76
2022/09/14 11:13:12;;;;;;;;;;;;;;;;;;4993275;28;1052;-76
2022/09/14 11:15:41;;;;;;;;;;;;;;;;;;4990276;28;960;-76
2022/09/14 11:18:10;;;;;;;;;;;;;;;;;;4989019;28;1335;-76
2022/09/14 11:20:43;;;;;;;;;;;;;;;;;;4988069;28;814;-75
2022/09/14 11:23:16;;;;;;;;;;;;;;;;;;4988998;28;1410;-75
2022/09/14 11:25:43;;;;;;;;;;;;;;;;;;4989187;28;1063;-76
2022/09/14 11:28:10;;;;;;;;;;;;;;;;;;4989139;28;1969;-76
2022/09/14 11:30:37;;;;;;;;;;;;;;;;;;4988240;28;1298;-75
2022/09/14 11:33:06;;;;;;;;;;;;;;;;;;4989152;28;1059;-76
2022/09/14 11:35:34;;;;;;;;;;;;;;;;;;4989600;28;1098;-76
2022/09/14 11:38:02;;;;;;;;;;;;;;;;;;4988855;28;1329;-76
2022/09/14 11:40:29;;;;;;;;;;;;;;;;;;4989495;28;758;-76
2022/09/14 11:42:56;;;;;;;;;;;;;;;;;;4988938;28;766;-76
2022/09/14 11:45:23;;;;;;;;;;;;;;;;;;4988236;28;1372;-76
2022/09/14 11:47:52;;;;;;;;;;;;;;;;;;4989185;28;1914;-74
2022/09/14 11:50:19;;;;;;;;;;;;;;;;;;4989102;28;969;-76
2022/09/14 11:52:45;;;;;;;;;;;;;;;;;;4971803;28;1092;-75
2022/09/14 11:55:15;;;;;;;;;;;;;;;;;;4971533;28;1152;-75
2022/09/14 11:57:43;;;;;;;;;;;;;;;;;;4971575;28;1844;-76
2022/09/14 12:00:41;;;;;;;;;;;;;;;;;;4988891;28;1324;-76
2022/09/14 12:03:16;;;;;;;;;;;;;;;;;;4984945;28;1373;-77
2022/09/14 12:05:43;;;;;;;;;;;;;;;;;;5008404;28;898;-77
2022/09/14 12:08:26;;;;;;;;;;;;;;;;;;4990392;28;1969;-76
2022/09/14 12:11:03;;;;;;;;;;;;;;;;;;5008321;28;941;-77
2022/09/14 12:13:29;;;;;;;;;;;;;;;;;;5008257;28;779;-77
2022/09/14 12:16:03;;;;;;;;;;;;;;;;;;5007779;28;873;-76
2022/09/14 12:18:30;;;;;;;;;;;;;;;;;;5008264;28;1345;-77
2022/09/14 12:21:04;;;;;;;;;;;;;;;;;;4988136;28;1060;-77
2022/09/14 12:23:32;;;;;;;;;;;;;;;;;;4988763;28;1060;-77
2022/09/14 12:26:00;;;;;;;;;;;;;;;;;;4988494;28;988;-76
2022/09/14 12:28:27;;;;;;;;;;;;;;;;;;4970856;28;1976;-76
2022/09/14 12:31:08;;;;;;;;;;;;;;;;;;4986412;28;1055;-76
2022/09/14 12:33:42;;;;;;;;;;;;;;;;;;4968650;28;948;-76
2022/09/14 12:36:09;;;;;;;;;;;;;;;;;;4969259;28;1104;-76
2022/09/14 12:38:40;;;;;;;;;;;;;;;;;;4968789;28;1310;-76
2022/09/14 12:41:21;;;;;;;;;;;;;;;;;;4951690;28;1433;-75
2022/09/14 12:43:51;;;;;;;;;;;;;;;;;;4968049;28;1032;-76
2022/09/14 12:46:37;;;;;;;;;;;;;;;;;;4968828;28;1044;-76
2022/09/14 12:49:10;;;;;;;;;;;;;;;;;;4981041;28;1922;-76
2022/09/14 12:51:41;;;;;;;;;;;;;;;;;;4988177;28;1439;-75
2022/09/14 12:54:10;;;;;;;;;;;;;;;;;;4988631;28;1114;-75
2022/09/14 12:56:38;;;;;;;;;;;;;;;;;;4969996;28;1184;-74
2022/09/14 12:59:07;;;;;;;;;;;;;;;;;;4970889;28;1354;-76
2022/09/14 13:01:35;;;;;;;;;;;;;;;;;;4987939;28;933;-75
2022/09/14 13:04:01;;;;;;;;;;;;;;;;;;4987932;28;929;-75
2022/09/14 13:06:31;;;;;;;;;;;;;;;;;;4988016;28;992;-76
2022/09/14 13:08:58;;;;;;;;;;;;;;;;;;4987450;28;1914;-76
2022/09/14 13:11:26;;;;;;;;;;;;;;;;;;4987622;28;1068;-76
2022/09/14 13:13:52;;;;;;;;;;;;;;;;;;4986825;28;1100;-76
2022/09/14 13:16:19;;;;;;;;;;;;;;;;;;4970834;28;1352;-76
2022/09/14 13:18:45;;;;;;;;;;;;;;;;;;4987830;28;1403;-77
2022/09/14 13:21:19;;;;;;;;;;;;;;;;;;4988225;28;1060;-77
2022/09/14 13:23:46;;;;;;;;;;;;;;;;;;4987828;28;1114;-77
2022/09/14 13:26:14;;;;;;;;;;;;;;;;;;4988022;28;830;-77
2022/09/14 13:28:41;;;;;;;;;;;;;;;;;;4983452;28;1982;-76
2022/09/14 13:31:11;;;;;;;;;;;;;;;;;;4980634;28;967;-77
2022/09/14 13:33:37;;;;;;;;;;;;;;;;;;4986191;28;942;-75
2022/09/14 13:36:03;;;;;;;;;;;;;;;;;;4986684;28;1111;-77
2022/09/14 13:38:30;;;;;;;;;;;;;;;;;;4987032;28;1340;-77
2022/09/14 13:41:06;;;;;;;;;;;;;;;;;;4986838;28;1045;-77
2022/09/14 13:43:33;;;;;;;;;;;;;;;;;;4987258;28;1056;-77
2022/09/14 13:45:59;;;;;;;;;;;;;;;;;;4968017;28;1388;-77
2022/09/14 13:48:25;;;;;;;;;;;;;;;;;;4973290;28;1919;-76
2022/09/14 13:50:51;;;;;;;;;;;;;;;;;;4979180;28;1149;-76
2022/09/14 13:53:40;;;;;;;;;;;;;;;;;;4969935;28;1194;-76
2022/09/14 13:56:17;;;;;;;;;;;;;;;;;;4984862;28;1367;-77
2022/09/14 13:58:44;;;;;;;;;;;;;;;;;;4995770;28;1341;-77
2022/09/14 14:01:10;;;;;;;;;;;;;;;;;;4982676;28;1055;-76
2022/09/14 14:03:37;;;;;;;;;;;;;;;;;;4985368;28;1225;-77
2022/09/14 14:06:04;;;;;;;;;;;;;;;;;;5004823;28;1542;-77
2022/09/14 14:08:32;;;;;;;;;;;;;;;;;;4992503;28;1918;-76
2022/09/14 14:10:59;;;;;;;;;;;;;;;;;;4973371;28;1150;-76
2022/09/14 14:13:26;;;;;;;;;;;;;;;;;;4973014;28;1402;-76
2022/09/14 14:15:53;;;;;;;;;;;;;;;;;;4990506;28;828;-77
2022/09/14 14:18:39;;;;;;;;;;;;;;;;;;4980193;28;1416;-77
2022/09/14 14:21:06;;;;;;;;;;;;;;;;;;4981797;28;1394;-77
2022/09/14 14:23:32;;;;;;;;;;;;;;;;;;4985498;28;1230;-77
2022/09/14 14:26:06;;;;;;;;;;;;;;;;;;4993174;28;1230;-76
2022/09/14 14:28:34;;;;;;;;;;;;;;;;;;4989983;28;1918;-76
2022/09/14 14:31:01;;;;;;;;;;;;;;;;;;4989100;28;1444;-76
2022/09/14 14:33:27;;;;;;;;;;;;;;;;;;4990514;28;1182;-75
2022/09/14 14:35:55;;;;;;;;;;;;;;;;;;4989923;28;933;-77
2022/09/14 14:38:22;;;;;;;;;;;;;;;;;;4990182;28;1425;-76
2022/09/14 14:40:48;;;;;;;;;;;;;;;;;;4989515;28;823;-75
2022/09/14 14:43:17;;;;;;;;;;;;;;;;;;4989911;22;2101;-75
2022/09/14 14:45:44;;;;;;;;;;;;;;;;;;4968069;28;1441;-75
2022/09/14 14:48:11;;;;;;;;;;;;;;;;;;4972556;28;1975;-73
2022/09/14 14:50:37;;;;;;;;;;;;;;;;;;4965076;28;1206;-76
2022/09/14 14:53:04;;;;;;;;;;;;;;;;;;4969502;28;1482;-76
2022/09/14 14:55:30;;;;;;;;;;;;;;;;;;4978291;28;1201;-75
2022/09/14 14:57:59;;;;;;;;;;;;;;;;;;4979891;28;1406;-76
2022/09/14 15:00:25;;;;;;;;;;;;;;;;;;4976800;28;945;-76
2022/09/14 15:02:53;;;;;;;;;;;;;;;;;;4989385;28;1397;-76
2022/09/14 15:05:19;;;;;;;;;;;;;;;;;;4979813;28;1517;-76
2022/09/14 15:07:46;;;;;;;;;;;;;;;;;;4981726;28;2005;-75
2022/09/14 15:10:13;;;;;;;;;;;;;;;;;;4989587;28;1001;-75
2022/09/14 15:12:39;;;;;;;;;;;;;;;;;;4978793;28;1452;-75
2022/09/14 15:15:06;;;;;;;;;;;;;;;;;;4970902;28;1368;-74
2022/09/14 15:17:32;;;;;;;;;;;;;;;;;;4982631;28;1573;-77
2022/09/14 15:20:00;;;;;;;;;;;;;;;;;;4978036;28;1211;-77
2022/09/14 15:22:26;;;;;;;;;;;;;;;;;;4982428;28;1374;-77
2022/09/14 15:24:52;;;;;;;;;;;;;;;;;;4969375;28;1791;-77
2022/09/14 15:27:18;;;;;;;;;;;;;;;;;;4974193;28;1354;-77
2022/09/14 15:29:45;;;;;;;;;;;;;;;;;;4971190;28;1915;-77
2022/09/14 15:32:11;;;;;;;;;;;;;;;;;;4978427;28;1393;-77
2022/09/14 15:34:37;;;;;;;;;;;;;;;;;;4969877;28;1186;-77
2022/09/14 15:37:05;;;;;;;;;;;;;;;;;;4971551;28;972;-77
2022/09/14 15:39:31;;;;;;;;;;;;;;;;;;4968494;28;1391;-77
2022/09/14 15:41:58;;;;;;;;;;;;;;;;;;4970650;28;1397;-77
2022/09/14 15:44:24;;;;;;;;;;;;;;;;;;4978667;28;1193;-77
2022/09/14 15:46:51;;;;;;;;;;;;;;;;;;4971427;28;897;-76
2022/09/14 15:49:18;;;;;;;;;;;;;;;;;;4993309;28;2207;-76
2022/09/14 15:51:45;;;;;;;;;;;;;;;;;;4995098;28;1642;-76
2022/09/14 15:54:13;;;;;;;;;;;;;;;;;;4983168;28;1210;-75
2022/09/14 15:56:39;;;;;;;;;;;;;;;;;;5005831;28;1515;-76
2022/09/14 15:59:05;;;;;;;;;;;;;;;;;;5073955;28;1254;-76
2022/09/14 16:01:32;;;;;;;;;;;;;;;;;;5032722;28;1503;-75
2022/09/14 16:03:58;;;;;;;;;;;;;;;;;;4978672;28;1394;-76
2022/09/14 16:06:25;;;;;;;;;;;;;;;;;;4982044;28;1145;-76
2022/09/14 16:08:51;;;;;;;;;;;;;;;;;;4989892;28;1919;-76
2022/09/14 16:11:18;;;;;;;;;;;;;;;;;;4989414;28;1123;-74
2022/09/14 16:13:44;;;;;;;;;;;;;;;;;;4989701;28;1134;-75
2022/09/14 16:16:11;;;;;;;;;;;;;;;;;;4989976;28;902;-76
2022/09/14 16:18:38;;;;;;;;;;;;;;;;;;4988466;28;1261;-75
2022/09/14 16:21:05;;;;;;;;;;;;;;;;;;4989689;28;910;-76
2022/09/14 16:23:31;;;;;;;;;;;;;;;;;;4988457;28;1405;-76
2022/09/14 16:25:57;;;;;;;;;;;;;;;;;;4989413;28;1138;-76
2022/09/14 16:28:25;;;;;;;;;;;;;;;;;;4989805;28;1976;-76
2022/09/14 16:30:51;;;;;;;;;;;;;;;;;;4988449;28;1059;-76
2022/09/14 16:33:18;;;;;;;;;;;;;;;;;;4988070;28;1344;-76
2022/09/14 16:35:44;;;;;;;;;;;;;;;;;;4976830;28;1458;-76
2022/09/14 16:38:10;;;;;;;;;;;;;;;;;;4983435;28;1427;-76
2022/09/14 16:40:36;;;;;;;;;;;;;;;;;;4968410;28;1112;-77
2022/09/14 16:43:03;;;;;;;;;;;;;;;;;;4966563;28;1339;-76
2022/09/14 16:45:30;;;;;;;;;;;;;;;;;;4971751;28;1415;-76
2022/09/14 16:47:56;;;;;;;;;;;;;;;;;;4969945;28;1130;-76
2022/09/14 16:50:22;;;;;;;;;;;;;;;;;;4966826;28;1922;-76
2022/09/14 16:52:49;;;;;;;;;;;;;;;;;;4968209;28;1307;-76
2022/09/14 16:55:15;;;;;;;;;;;;;;;;;;4970962;28;1426;-76
2022/09/14 16:57:41;;;;;;;;;;;;;;;;;;4973134;28;1113;-76
2022/09/14 17:00:08;;;;;;;;;;;;;;;;;;4968404;28;1119;-76
2022/09/14 17:02:36;;;;;;;;;;;;;;;;;;4964871;28;1427;-76
2022/09/14 17:05:02;;;;;;;;;;;;;;;;;;4976566;28;1177;-76
2022/09/14 17:07:28;;;;;;;;;;;;;;;;;;4978262;28;1384;-76
2022/09/14 17:09:54;;;;;;;;;;;;;;;;;;4968685;28;1899;-76